Time,TemperatureF,DewpointF,PressureIn,WindDirection,WindDirectionDegrees,WindSpeedMPH,WindSpeedGustMPH,Humidity,HourlyPrecipIn,Conditions,Clouds,dailyrainin,SoftwareType,DateUTC
2013-03-27 00:00:00,33.6,15.5,29.92,North,351,0.0,3.0,47,0.00,CLR,CLR,0.00,WeatherDisplay:10.34,2013-03-27 04:00:00,
2013-03-27 00:02:00,33.6,15.5,29.92,North,351,0.0,3.0,47,0.00,CLR,CLR,0.00,WeatherDisplay:10.34,2013-03-27 04:02:00,
2013-03-27 00:07:00,33.4,15.8,29.92,WNW,283,0.0,0.0,48,0.00,CLR,CLR,0.00,WeatherDisplay:10.34,2013-03-27 04:07:00,
2013-03-27 00:12:00,33.3,16.1,29.92,WSW,240,0.0,0.0,49,0.00,CLR,CLR,0.00,WeatherDisplay:10.34,2013-03-27 04:12:00,
2013-03-27 00:14:00,33.3,16.1,29.92,WSW,240,0.0,0.0,49,0.00,CLR,CLR,0.00,WeatherDisplay:10.34,2013-03-27 04:14:00,
2013-03-27 00:20:00,33.1,16.4,29.92,West,269,0.0,3.0,50,0.00,CLR,CLR,0.00,WeatherDisplay:10.34,2013-03-27 04:20:00,
2013-03-27 00:25:00,32.7,16.6,29.92,NW,306,0.0,3.0,51,0.00,CLR,CLR,0.00,WeatherDisplay:10.34,2013-03-27 04:25:00,
2013-03-27 00:30:00,32.5,16.4,29.92,NW,306,0.0,0.0,51,0.00,CLR,CLR,0.00,WeatherDisplay:10.34,2013-03-27 04:30:00,
2013-03-27 00:35:00,32.5,16.4,29.92,NW,306,0.0,0.0,51,0.00,CLR,CLR,0.00,WeatherDisplay:10.34,2013-03-27 04:35:00,
2013-03-27 00:40:00,32.0,15.9,29.92,WNW,287,4.0,7.0,51,0.00,CLR,CLR,0.00,WeatherDisplay:10.34,2013-03-27 04:40:00,
2013-03-27 00:45:00,31.6,15.6,29.92,WNW,287,0.0,3.0,51,0.00,CLR,CLR,0.00,WeatherDisplay:10.34,2013-03-27 04:45:00,
2013-03-27 00:50:00,31.8,15.7,29.92,West,279,0.0,3.0,51,0.00,CLR,CLR,0.00,WeatherDisplay:10.34,2013-03-27 04:50:00,
2013-03-27 00:55:00,31.8,15.7,29.92,West,279,0.0,0.0,51,0.00,CLR,CLR,0.00,WeatherDisplay:10.34,2013-03-27 04:55:00,
2013-03-27 01:00:00,31.6,16.0,29.92,West,279,0.0,0.0,52,0.00,CLR,CLR,0.00,WeatherDisplay:10.34,2013-03-27 05:00:00,
2013-03-27 01:05:00,31.6,16.0,29.92,West,280,0.0,3.0,52,0.00,CLR,CLR,0.00,WeatherDisplay:10.34,2013-03-27 05:05:00,
2013-03-27 01:10:00,31.6,16.0,29.92,West,280,0.0,0.0,52,0.00,CLR,CLR,0.00,WeatherDisplay:10.34,2013-03-27 05:10:00,
2013-03-27 01:15:00,31.3,15.7,29.92,WSW,253,0.0,0.0,52,0.00,CLR,CLR,0.00,WeatherDisplay:10.34,2013-03-27 05:15:00,
2013-03-27 01:20:00,31.3,15.7,29.92,WSW,253,0.0,0.0,52,0.00,CLR,CLR,0.00,WeatherDisplay:10.34,2013-03-27 05:20:00,
2013-03-27 01:25:00,31.5,16.3,29.92,WSW,253,0.0,0.0,53,0.00,CLR,CLR,0.00,WeatherDisplay:10.34,2013-03-27 05:25:00,
2013-03-27 01:30:00,31.3,16.1,29.92,WSW,253,0.0,0.0,53,0.00,CLR,CLR,0.00,WeatherDisplay:10.34,2013-03-27 05:30:00,
2013-03-27 01:35:00,31.3,16.1,29.92,WSW,253,0.0,0.0,53,0.00,CLR,CLR,0.00,WeatherDisplay:10.34,2013-03-27 05:35:00,
2013-03-27 01:40:00,31.3,16.1,29.92,WSW,253,0.0,0.0,53,0.00,CLR,CLR,0.00,WeatherDisplay:10.34,2013-03-27 05:40:00,
2013-03-27 01:45:00,31.3,16.1,29.92,WSW,253,0.0,2.0,53,0.00,CLR,CLR,0.00,WeatherDisplay:10.34,2013-03-27 05:45:00,
2013-03-27 01:50:00,31.1,15.9,29.92,WSW,253,0.0,0.0,53,0.00,CLR,CLR,0.00,WeatherDisplay:10.34,2013-03-27 05:50:00,
2013-03-27 01:55:00,31.1,16.4,29.92,West,274,0.0,3.0,54,0.00,CLR,CLR,0.00,WeatherDisplay:10.34,2013-03-27 05:55:00,
2013-03-27 02:00:00,31.3,16.5,29.92,West,274,0.0,2.0,54,0.00,CLR,CLR,0.00,WeatherDisplay:10.34,2013-03-27 06:00:00,
2013-03-27 02:05:00,31.1,16.4,29.92,West,274,0.0,0.0,54,0.00,CLR,CLR,0.00,WeatherDisplay:10.34,2013-03-27 06:05:00,
2013-03-27 02:10:00,31.1,16.4,29.92,West,278,0.0,0.0,54,0.00,CLR,CLR,0.00,WeatherDisplay:10.34,2013-03-27 06:10:00,
2013-03-27 02:15:00,31.1,16.4,29.92,West,278,0.0,5.0,54,0.00,CLR,CLR,0.00,WeatherDisplay:10.34,2013-03-27 06:15:00,
2013-03-27 02:20:00,31.1,16.4,29.92,West,278,0.0,5.0,54,0.00,CLR,CLR,0.00,WeatherDisplay:10.34,2013-03-27 06:20:00,
2013-03-27 02:25:00,31.1,16.8,29.92,West,278,0.0,3.0,55,0.00,CLR,CLR,0.00,WeatherDisplay:10.34,2013-03-27 06:25:00,
2013-03-27 02:30:00,31.1,16.8,29.92,WNW,282,3.0,8.0,55,0.00,CLR,CLR,0.00,WeatherDisplay:10.34,2013-03-27 06:30:00,
2013-03-27 02:35:00,31.1,16.8,29.92,WNW,282,0.0,2.0,55,0.00,CLR,CLR,0.00,WeatherDisplay:10.34,2013-03-27 06:35:00,
2013-03-27 02:40:00,31.1,16.8,29.92,NW,310,0.0,5.0,55,0.00,CLR,CLR,0.00,WeatherDisplay:10.34,2013-03-27 06:40:00,
2013-03-27 02:45:00,30.9,16.2,29.89,NW,315,0.0,2.0,54,0.00,CLR,CLR,0.00,WeatherDisplay:10.34,2013-03-27 06:45:00,
2013-03-27 02:50:00,31.1,16.8,29.89,NW,314,0.0,10.0,55,0.00,CLR,CLR,0.00,WeatherDisplay:10.34,2013-03-27 06:50:00,
2013-03-27 02:55:00,31.3,16.5,29.89,WNW,295,3.0,7.0,54,0.00,CLR,CLR,0.00,WeatherDisplay:10.34,2013-03-27 06:55:00,
2013-03-27 03:00:00,31.3,16.5,29.89,WNW,290,0.0,3.0,54,0.00,CLR,CLR,0.00,WeatherDisplay:10.34,2013-03-27 07:00:00,
2013-03-27 03:05:00,31.1,15.9,29.89,WNW,296,0.0,9.0,53,0.00,CLR,CLR,0.00,WeatherDisplay:10.34,2013-03-27 07:05:00,
2013-03-27 03:10:00,30.9,16.2,29.89,WSW,257,0.0,3.0,54,0.00,CLR,CLR,0.00,WeatherDisplay:10.34,2013-03-27 07:10:00,
2013-03-27 03:15:00,30.7,16.0,29.89,West,259,0.0,5.0,54,0.00,CLR,CLR,0.00,WeatherDisplay:10.34,2013-03-27 07:15:00,
2013-03-27 03:20:00,30.6,16.3,29.89,WNW,283,3.0,5.0,55,0.00,CLR,CLR,0.00,WeatherDisplay:10.34,2013-03-27 07:20:00,
2013-03-27 03:25:00,30.6,16.3,29.89,West,281,0.0,5.0,55,0.00,CLR,CLR,0.00,WeatherDisplay:10.34,2013-03-27 07:25:00,
2013-03-27 03:30:00,30.7,16.5,29.89,West,281,3.0,5.0,55,0.00,CLR,CLR,0.00,WeatherDisplay:10.34,2013-03-27 07:30:00,
2013-03-27 03:35:00,30.7,16.5,29.89,West,281,0.0,0.0,55,0.00,CLR,CLR,0.00,WeatherDisplay:10.34,2013-03-27 07:35:00,
2013-03-27 03:40:00,30.7,16.5,29.89,WNW,286,0.0,5.0,55,0.00,CLR,CLR,0.00,WeatherDisplay:10.34,2013-03-27 07:40:00,
2013-03-27 03:45:00,30.7,16.5,29.89,WNW,298,0.0,2.0,55,0.00,CLR,CLR,0.00,WeatherDisplay:10.34,2013-03-27 07:45:00,
2013-03-27 03:50:00,30.7,16.5,29.89,WSW,254,5.0,10.0,55,0.00,CLR,CLR,0.00,WeatherDisplay:10.34,2013-03-27 07:50:00,
2013-03-27 03:55:00,30.6,16.3,29.89,WNW,287,3.0,8.0,55,0.00,CLR,CLR,0.00,WeatherDisplay:10.34,2013-03-27 07:55:00,
2013-03-27 04:00:00,30.7,16.5,29.89,West,276,3.0,5.0,55,0.00,CLR,CLR,0.00,WeatherDisplay:10.34,2013-03-27 08:00:00,
2013-03-27 04:05:00,30.7,16.0,29.89,West,269,0.0,6.0,54,0.00,CLR,CLR,0.00,WeatherDisplay:10.34,2013-03-27 08:05:00,
2013-03-27 04:10:00,30.7,16.0,29.89,WNW,286,0.0,3.0,54,0.00,CLR,CLR,0.00,WeatherDisplay:10.34,2013-03-27 08:10:00,
2013-03-27 04:15:00,30.7,16.0,29.89,WNW,293,0.0,0.0,54,0.00,CLR,CLR,0.00,WeatherDisplay:10.34,2013-03-27 08:15:00,
2013-03-27 04:20:00,30.7,16.0,29.89,North,356,4.0,8.0,54,0.00,CLR,CLR,0.00,WeatherDisplay:10.34,2013-03-27 08:20:00,
2013-03-27 04:26:00,30.7,16.0,29.89,WNW,298,0.0,5.0,54,0.00,CLR,CLR,0.00,WeatherDisplay:10.34,2013-03-27 08:26:00,
2013-03-27 04:32:00,30.6,15.9,29.89,WNW,303,0.0,3.0,54,0.00,CLR,CLR,0.00,WeatherDisplay:10.34,2013-03-27 08:32:00,
2013-03-27 04:37:00,30.7,16.0,29.89,NW,307,0.0,5.0,54,0.00,CLR,CLR,0.00,WeatherDisplay:10.34,2013-03-27 08:37:00,
2013-03-27 04:43:00,30.9,15.8,29.89,North,351,4.0,8.0,53,0.00,CLR,CLR,0.00,WeatherDisplay:10.34,2013-03-27 08:43:00,
2013-03-27 04:49:00,31.1,15.9,29.89,WNW,298,4.0,7.0,53,0.00,CLR,CLR,0.00,WeatherDisplay:10.34,2013-03-27 08:49:00,
2013-03-27 04:54:00,30.9,15.8,29.89,West,279,0.0,3.0,53,0.00,CLR,CLR,0.00,WeatherDisplay:10.34,2013-03-27 08:54:00,
2013-03-27 04:59:00,30.9,15.8,29.89,West,265,0.0,7.0,53,0.00,CLR,CLR,0.00,WeatherDisplay:10.34,2013-03-27 08:59:00,
2013-03-27 05:04:00,30.9,15.8,29.89,WNW,294,4.0,9.0,53,0.00,CLR,CLR,0.00,WeatherDisplay:10.34,2013-03-27 09:04:00,
2013-03-27 05:09:00,30.9,15.3,29.89,West,261,7.0,15.0,52,0.00,CLR,CLR,0.00,WeatherDisplay:10.34,2013-03-27 09:09:00,
2013-03-27 05:14:00,30.9,15.3,29.89,SW,231,3.0,7.0,52,0.00,CLR,CLR,0.00,WeatherDisplay:10.34,2013-03-27 09:14:00,
2013-03-27 05:19:00,30.9,15.3,29.89,NW,323,3.0,7.0,52,0.00,CLR,CLR,0.00,WeatherDisplay:10.34,2013-03-27 09:19:00,
2013-03-27 05:24:00,31.1,15.5,29.89,WSW,246,0.0,2.0,52,0.00,CLR,CLR,0.00,WeatherDisplay:10.34,2013-03-27 09:24:00,
2013-03-27 05:29:00,31.1,15.5,29.89,South,186,0.0,2.0,52,0.00,CLR,CLR,0.00,WeatherDisplay:10.34,2013-03-27 09:29:00,
2013-03-27 05:34:00,31.1,15.5,29.89,NNW,336,0.0,6.0,52,0.00,CLR,CLR,0.00,WeatherDisplay:10.34,2013-03-27 09:34:00,
2013-03-27 05:39:00,30.9,15.3,29.89,NNE,18,3.0,6.0,52,0.00,CLR,CLR,0.00,WeatherDisplay:10.34,2013-03-27 09:39:00,
2013-03-27 05:44:00,30.9,15.3,29.89,North,356,0.0,2.0,52,0.00,CLR,CLR,0.00,WeatherDisplay:10.34,2013-03-27 09:44:00,
2013-03-27 05:49:00,30.9,15.3,29.89,North,0,3.0,6.0,52,0.00,CLR,CLR,0.00,WeatherDisplay:10.34,2013-03-27 09:49:00,
2013-03-27 05:54:00,30.7,15.2,29.89,NW,318,0.0,5.0,52,0.00,CLR,CLR,0.00,WeatherDisplay:10.34,2013-03-27 09:54:00,
2013-03-27 05:59:00,30.7,15.2,29.89,WNW,291,4.0,8.0,52,0.00,CLR,CLR,0.00,WeatherDisplay:10.34,2013-03-27 09:59:00,
2013-03-27 06:04:00,30.6,15.0,29.89,West,278,4.0,7.0,52,0.00,CLR,CLR,0.00,WeatherDisplay:10.34,2013-03-27 10:04:00,
2013-03-27 06:09:00,30.7,15.2,29.89,West,274,3.0,3.0,52,0.00,CLR,CLR,0.00,WeatherDisplay:10.34,2013-03-27 10:09:00,
2013-03-27 06:14:00,30.6,15.0,29.90,WNW,284,3.0,10.0,52,0.00,CLR,CLR,0.00,WeatherDisplay:10.34,2013-03-27 10:14:00,
2013-03-27 06:19:00,30.7,15.2,29.93,NW,309,0.0,5.0,52,0.00,CLR,CLR,0.00,WeatherDisplay:10.34,2013-03-27 10:19:00,
2013-03-27 06:24:00,30.7,15.2,29.93,WNW,284,0.0,3.0,52,0.00,CLR,CLR,0.00,WeatherDisplay:10.34,2013-03-27 10:24:00,
2013-03-27 06:29:00,30.6,15.0,29.93,SW,232,4.0,9.0,52,0.00,CLR,CLR,0.00,WeatherDisplay:10.34,2013-03-27 10:29:00,
2013-03-27 06:34:00,30.6,15.0,29.93,West,265,0.0,0.0,52,0.00,CLR,CLR,0.00,WeatherDisplay:10.34,2013-03-27 10:34:00,
2013-03-27 06:39:00,30.6,15.4,29.93,WNW,286,0.0,6.0,53,0.00,CLR,CLR,0.00,WeatherDisplay:10.34,2013-03-27 10:39:00,
2013-03-27 06:44:00,30.6,15.4,29.93,WNW,285,0.0,6.0,53,0.00,CLR,CLR,0.00,WeatherDisplay:10.34,2013-03-27 10:44:00,
2013-03-27 06:49:00,30.4,15.3,29.93,West,268,3.0,7.0,53,0.00,CLR,CLR,0.00,WeatherDisplay:10.34,2013-03-27 10:49:00,
2013-03-27 06:54:00,30.2,15.1,29.93,WSW,250,3.0,8.0,53,0.00,CLR,CLR,0.00,WeatherDisplay:10.34,2013-03-27 10:54:00,
2013-03-27 06:59:00,30.4,15.3,29.93,WNW,285,0.0,5.0,53,0.00,CLR,CLR,0.00,WeatherDisplay:10.34,2013-03-27 10:59:00,
2013-03-27 07:04:00,30.2,15.1,29.93,West,271,3.0,7.0,53,0.00,CLR,CLR,0.00,WeatherDisplay:10.34,2013-03-27 11:04:00,
2013-03-27 07:09:00,30.4,15.3,29.93,WNW,301,0.0,0.0,53,0.00,CLR,CLR,0.00,WeatherDisplay:10.34,2013-03-27 11:09:00,
2013-03-27 07:14:00,30.4,15.7,29.93,WSW,250,3.0,7.0,54,0.00,CLR,CLR,0.00,WeatherDisplay:10.34,2013-03-27 11:14:00,
2013-03-27 07:19:00,30.4,15.7,29.93,WNW,300,3.0,6.0,54,0.00,CLR,CLR,0.00,WeatherDisplay:10.34,2013-03-27 11:19:00,
2013-03-27 07:24:00,30.4,15.7,29.93,NW,321,3.0,6.0,54,0.00,CLR,CLR,0.00,WeatherDisplay:10.34,2013-03-27 11:24:00,
2013-03-27 07:29:00,30.6,15.9,29.93,WNW,292,4.0,10.0,54,0.00,CLR,CLR,0.00,WeatherDisplay:10.34,2013-03-27 11:29:00,
2013-03-27 07:34:00,30.9,16.2,29.93,NNW,339,4.0,7.0,54,0.00,CLR,CLR,0.00,WeatherDisplay:10.34,2013-03-27 11:34:00,
2013-03-27 07:39:00,31.3,16.5,29.93,WSW,242,0.0,10.0,54,0.00,CLR,CLR,0.00,WeatherDisplay:10.34,2013-03-27 11:39:00,
2013-03-27 07:44:00,31.5,16.3,29.93,West,280,6.0,12.0,53,0.00,CLR,CLR,0.00,WeatherDisplay:10.34,2013-03-27 11:44:00,
2013-03-27 07:49:00,31.8,16.2,29.93,SW,226,7.0,15.0,52,0.00,CLR,CLR,0.00,WeatherDisplay:10.34,2013-03-27 11:49:00,
2013-03-27 07:54:00,32.0,16.3,29.93,North,351,4.0,6.0,52,0.00,CLR,CLR,0.00,WeatherDisplay:10.34,2013-03-27 11:54:00,
2013-03-27 07:59:00,32.4,16.2,29.93,NW,312,3.0,10.0,51,0.00,CLR,CLR,0.00,WeatherDisplay:10.34,2013-03-27 11:59:00,
2013-03-27 08:04:00,32.5,16.4,29.93,NW,317,0.0,2.0,51,0.00,CLR,CLR,0.00,WeatherDisplay:10.34,2013-03-27 12:04:00,
2013-03-27 08:09:00,32.7,16.6,29.93,West,259,0.0,6.0,51,0.00,CLR,CLR,0.00,WeatherDisplay:10.34,2013-03-27 12:09:00,
2013-03-27 08:14:00,32.9,16.3,29.93,WSW,248,3.0,10.0,50,0.00,CLR,CLR,0.00,WeatherDisplay:10.34,2013-03-27 12:14:00,
2013-03-27 08:19:00,33.3,16.6,29.93,West,267,0.0,5.0,50,0.00,CLR,CLR,0.00,WeatherDisplay:10.34,2013-03-27 12:19:00,
2013-03-27 08:24:00,33.6,16.5,29.93,WNW,283,0.0,13.0,49,0.00,CLR,CLR,0.00,WeatherDisplay:10.34,2013-03-27 12:24:00,
2013-03-27 08:29:00,34.0,16.3,29.93,WNW,285,4.0,9.0,48,0.00,CLR,CLR,0.00,WeatherDisplay:10.34,2013-03-27 12:29:00,
2013-03-27 08:34:00,34.2,16.0,29.93,West,268,4.0,12.0,47,0.00,CLR,CLR,0.00,WeatherDisplay:10.34,2013-03-27 12:34:00,
2013-03-27 08:39:00,34.5,16.3,29.93,West,280,3.0,9.0,47,0.00,CLR,CLR,0.00,WeatherDisplay:10.34,2013-03-27 12:39:00,
2013-03-27 08:44:00,34.7,16.0,29.93,NNW,329,6.0,10.0,46,0.00,CLR,CLR,0.00,WeatherDisplay:10.34,2013-03-27 12:44:00,
2013-03-27 08:49:00,35.1,15.8,29.93,SW,217,5.0,7.0,45,0.00,CLR,CLR,0.00,WeatherDisplay:10.34,2013-03-27 12:49:00,
2013-03-27 08:54:00,35.4,16.2,29.93,NW,318,6.0,9.0,45,0.00,CLR,CLR,0.00,WeatherDisplay:10.34,2013-03-27 12:54:00,
2013-03-27 08:59:00,35.6,15.8,29.93,NW,309,6.0,9.0,44,0.00,CLR,CLR,0.00,WeatherDisplay:10.34,2013-03-27 12:59:00,
2013-03-27 09:04:00,35.8,16.0,29.93,NNW,343,4.0,6.0,44,0.00,CLR,CLR,0.00,WeatherDisplay:10.34,2013-03-27 13:04:00,
2013-03-27 09:09:00,36.1,16.3,29.93,North,1,4.0,6.0,44,0.00,CLR,CLR,0.00,WeatherDisplay:10.34,2013-03-27 13:09:00,
2013-03-27 09:14:00,36.3,16.5,29.93,NNW,333,3.0,7.0,44,0.00,CLR,CLR,0.00,WeatherDisplay:10.34,2013-03-27 13:14:00,
2013-03-27 09:19:00,36.5,16.1,29.93,West,266,5.0,8.0,43,0.00,CLR,CLR,0.00,WeatherDisplay:10.34,2013-03-27 13:19:00,
2013-03-27 09:24:00,36.9,15.9,29.93,WSW,252,10.0,20.0,42,0.00,CLR,CLR,0.00,WeatherDisplay:10.34,2013-03-27 13:24:00,
2013-03-27 09:29:00,37.0,16.0,29.93,NNW,343,4.0,13.0,42,0.00,CLR,CLR,0.00,WeatherDisplay:10.34,2013-03-27 13:29:00,
2013-03-27 09:34:00,37.4,16.4,29.93,WSW,256,3.0,3.0,42,0.00,CLR,CLR,0.00,WeatherDisplay:10.34,2013-03-27 13:34:00,
2013-03-27 09:39:00,37.6,16.5,29.92,North,9,4.0,8.0,42,0.00,CLR,CLR,0.00,WeatherDisplay:10.34,2013-03-27 13:39:00,
2013-03-27 09:44:00,37.9,16.9,29.92,West,274,0.0,6.0,42,0.00,CLR,CLR,0.00,WeatherDisplay:10.34,2013-03-27 13:44:00,
2013-03-27 09:49:00,38.1,17.0,29.92,WSW,252,5.0,7.0,42,0.00,CLR,CLR,0.00,WeatherDisplay:10.34,2013-03-27 13:49:00,
2013-03-27 09:54:00,38.7,17.0,29.92,SSW,201,3.0,5.0,41,0.00,CLR,CLR,0.00,WeatherDisplay:10.34,2013-03-27 13:54:00,
2013-03-27 09:59:00,39.0,17.3,29.92,WSW,242,3.0,12.0,41,0.00,CLR,CLR,0.00,WeatherDisplay:10.34,2013-03-27 13:59:00,
2013-03-27 10:04:00,39.6,17.8,29.92,NE,41,4.0,7.0,41,0.00,BKN,BKN,0.00,WeatherDisplay:10.34,2013-03-27 14:04:00,
2013-03-27 10:09:00,39.9,17.5,29.92,NNE,15,0.0,0.0,40,0.00,BKN,BKN,0.00,WeatherDisplay:10.34,2013-03-27 14:09:00,
2013-03-27 10:14:00,40.5,18.0,29.92,East,79,3.0,6.0,40,0.00,BKN,BKN,0.00,WeatherDisplay:10.34,2013-03-27 14:14:00,
2013-03-27 10:19:00,40.8,17.7,29.92,NE,50,7.0,10.0,39,0.00,BKN,BKN,0.00,WeatherDisplay:10.34,2013-03-27 14:19:00,
2013-03-27 10:24:00,41.2,18.1,29.92,West,266,4.0,6.0,39,0.00,BKN,BKN,0.00,WeatherDisplay:10.34,2013-03-27 14:24:00,
2013-03-27 10:29:00,41.7,18.5,29.92,East,91,4.0,7.0,39,0.00,BKN,BKN,0.00,WeatherDisplay:10.34,2013-03-27 14:29:00,
2013-03-27 10:34:00,42.4,18.6,29.92,East,96,4.0,7.0,38,0.00,BKN,BKN,0.00,WeatherDisplay:10.34,2013-03-27 14:34:00,
2013-03-27 10:39:00,42.4,18.6,29.92,NNE,24,4.0,6.0,38,0.00,BKN,BKN,0.00,WeatherDisplay:10.34,2013-03-27 14:39:00,
2013-03-27 10:44:00,42.8,18.9,29.92,ENE,72,3.0,5.0,38,0.00,BKN,BKN,0.00,WeatherDisplay:10.34,2013-03-27 14:44:00,
2013-03-27 10:49:00,43.5,19.6,29.92,NE,39,6.0,10.0,38,0.00,BKN,BKN,0.00,WeatherDisplay:10.34,2013-03-27 14:49:00,
2013-03-27 10:54:00,43.9,19.3,29.92,ENE,60,4.0,6.0,37,0.00,BKN,BKN,0.00,WeatherDisplay:10.34,2013-03-27 14:54:00,
2013-03-27 10:59:00,44.2,19.6,29.92,North,6,5.0,13.0,37,0.00,BKN,BKN,0.00,WeatherDisplay:10.34,2013-03-27 14:59:00,
2013-03-27 11:04:00,44.6,19.9,29.92,NNE,21,11.0,15.0,37,0.00,CLR,CLR,0.00,WeatherDisplay:10.34,2013-03-27 15:04:00,
2013-03-27 11:09:00,44.6,18.6,29.92,NNW,346,12.0,12.0,35,0.00,CLR,CLR,0.00,WeatherDisplay:10.34,2013-03-27 15:09:00,
2013-03-27 11:14:00,44.1,18.1,29.92,NW,305,6.0,9.0,35,0.00,CLR,CLR,0.00,WeatherDisplay:10.34,2013-03-27 15:14:00,
2013-03-27 11:19:00,43.7,18.5,29.92,NNW,334,3.0,6.0,36,0.00,CLR,CLR,0.00,WeatherDisplay:10.34,2013-03-27 15:19:00,
2013-03-27 11:24:00,43.3,17.5,29.92,North,7,0.0,6.0,35,0.00,CLR,CLR,0.00,WeatherDisplay:10.34,2013-03-27 15:24:00,
2013-03-27 11:29:00,43.3,18.1,29.92,SW,227,7.0,9.0,36,0.00,CLR,CLR,0.00,WeatherDisplay:10.34,2013-03-27 15:29:00,
2013-03-27 11:34:00,44.1,18.1,29.92,NE,42,4.0,6.0,35,0.00,CLR,CLR,0.00,WeatherDisplay:10.34,2013-03-27 15:34:00,
2013-03-27 11:39:00,44.2,18.3,29.92,ENE,61,7.0,12.0,35,0.00,CLR,CLR,0.00,WeatherDisplay:10.34,2013-03-27 15:39:00,
2013-03-27 11:44:00,44.2,17.6,29.92,NNW,342,5.0,5.0,34,0.00,CLR,CLR,0.00,WeatherDisplay:10.34,2013-03-27 15:44:00,
2013-03-27 11:49:00,44.2,18.3,29.92,NW,320,5.0,13.0,35,0.00,CLR,CLR,0.00,WeatherDisplay:10.34,2013-03-27 15:49:00,
2013-03-27 11:54:00,43.7,17.8,29.92,NNE,27,5.0,9.0,35,0.00,CLR,CLR,0.00,WeatherDisplay:10.34,2013-03-27 15:54:00,
2013-03-27 11:59:00,43.9,18.0,29.92,North,6,3.0,5.0,35,0.00,CLR,CLR,0.00,WeatherDisplay:10.34,2013-03-27 15:59:00,
2013-03-27 12:04:00,44.8,18.1,29.92,ENE,65,4.0,7.0,34,0.00,CLR,CLR,0.00,WeatherDisplay:10.34,2013-03-27 16:04:00,
2013-03-27 12:09:00,45.1,17.7,29.92,NE,35,6.0,7.0,33,0.00,CLR,CLR,0.00,WeatherDisplay:10.34,2013-03-27 16:09:00,
2013-03-27 12:14:00,44.4,17.8,29.92,East,81,5.0,8.0,34,0.00,CLR,CLR,0.00,WeatherDisplay:10.34,2013-03-27 16:14:00,
2013-03-27 12:19:00,44.2,16.9,29.92,North,3,3.0,7.0,33,0.00,CLR,CLR,0.00,WeatherDisplay:10.34,2013-03-27 16:19:00,
2013-03-27 12:24:00,44.2,16.9,29.92,East,79,5.0,6.0,33,0.00,CLR,CLR,0.00,WeatherDisplay:10.34,2013-03-27 16:24:00,
2013-03-27 12:29:00,44.1,16.8,29.92,ENE,71,7.0,16.0,33,0.00,CLR,CLR,0.00,WeatherDisplay:10.34,2013-03-27 16:29:00,
2013-03-27 12:34:00,43.9,16.6,29.92,NE,36,8.0,12.0,33,0.00,CLR,CLR,0.00,WeatherDisplay:10.34,2013-03-27 16:34:00,
2013-03-27 12:39:00,44.2,17.6,29.92,North,351,5.0,8.0,34,0.00,CLR,CLR,0.00,WeatherDisplay:10.34,2013-03-27 16:39:00,
2013-03-27 12:44:00,45.3,17.9,29.92,NNW,346,4.0,8.0,33,0.00,CLR,CLR,0.00,WeatherDisplay:10.34,2013-03-27 16:44:00,
2013-03-27 12:49:00,45.5,17.3,29.92,ENE,59,3.0,5.0,32,0.00,CLR,CLR,0.00,WeatherDisplay:10.34,2013-03-27 16:49:00,
2013-03-27 12:54:00,45.5,17.3,29.92,NNE,18,0.0,9.0,32,0.00,CLR,CLR,0.00,WeatherDisplay:10.34,2013-03-27 16:54:00,
2013-03-27 12:59:00,45.1,16.3,29.92,East,93,5.0,9.0,31,0.00,CLR,CLR,0.00,WeatherDisplay:10.34,2013-03-27 16:59:00,
2013-03-27 13:04:00,45.1,17.0,29.89,NNE,32,4.0,7.0,32,0.00,CLR,CLR,0.00,WeatherDisplay:10.34,2013-03-27 17:04:00,
2013-03-27 13:09:00,45.9,16.9,29.89,NE,40,5.0,7.0,31,0.00,CLR,CLR,0.00,WeatherDisplay:10.34,2013-03-27 17:09:00,
2013-03-27 13:14:00,45.5,16.6,29.89,NNW,337,4.0,7.0,31,0.00,CLR,CLR,0.00,WeatherDisplay:10.34,2013-03-27 17:14:00,
2013-03-27 13:19:00,45.5,16.6,29.89,NNE,30,7.0,14.0,31,0.00,CLR,CLR,0.00,WeatherDisplay:10.34,2013-03-27 17:19:00,
2013-03-27 13:24:00,45.5,16.6,29.89,NNE,16,4.0,9.0,31,0.00,CLR,CLR,0.00,WeatherDisplay:10.34,2013-03-27 17:24:00,
2013-03-27 13:29:00,45.9,16.9,29.89,NNE,26,3.0,8.0,31,0.00,CLR,CLR,0.00,WeatherDisplay:10.34,2013-03-27 17:29:00,
2013-03-27 13:34:00,45.9,16.9,29.89,NW,325,0.0,7.0,31,0.00,CLR,CLR,0.00,WeatherDisplay:10.34,2013-03-27 17:34:00,
2013-03-27 13:39:00,46.2,17.2,29.89,ENE,62,3.0,3.0,31,0.00,CLR,CLR,0.00,WeatherDisplay:10.34,2013-03-27 17:39:00,
2013-03-27 13:44:00,46.6,17.5,29.89,WSW,255,4.0,9.0,31,0.00,CLR,CLR,0.00,WeatherDisplay:10.34,2013-03-27 17:44:00,
2013-03-27 13:49:00,46.8,17.7,29.89,NE,56,5.0,10.0,31,0.00,CLR,CLR,0.00,WeatherDisplay:10.34,2013-03-27 17:49:00,
2013-03-27 13:54:00,46.6,17.5,29.89,NW,325,7.0,9.0,31,0.00,CLR,CLR,0.00,WeatherDisplay:10.34,2013-03-27 17:54:00,
2013-03-27 13:59:00,46.6,17.5,29.89,North,8,3.0,7.0,31,0.00,CLR,CLR,0.00,WeatherDisplay:10.34,2013-03-27 17:59:00,
2013-03-27 14:04:00,46.8,17.7,29.89,NE,46,4.0,9.0,31,0.00,CLR,CLR,0.00,WeatherDisplay:10.34,2013-03-27 18:04:00,
2013-03-27 14:09:00,47.1,18.0,29.89,North,351,4.0,5.0,31,0.00,CLR,CLR,0.00,WeatherDisplay:10.34,2013-03-27 18:09:00,
2013-03-27 14:14:00,47.3,17.4,29.89,NNE,26,7.0,8.0,30,0.00,CLR,CLR,0.00,WeatherDisplay:10.34,2013-03-27 18:14:00,
2013-03-27 14:19:00,47.1,18.0,29.89,North,0,6.0,7.0,31,0.00,CLR,CLR,0.00,WeatherDisplay:10.34,2013-03-27 18:19:00,
2013-03-27 14:24:00,46.8,17.7,29.89,North,0,5.0,13.0,31,0.00,CLR,CLR,0.00,WeatherDisplay:10.34,2013-03-27 18:24:00,
2013-03-27 14:29:00,46.8,17.7,29.89,NE,36,4.0,10.0,31,0.00,CLR,CLR,0.00,WeatherDisplay:10.34,2013-03-27 18:29:00,
2013-03-27 14:34:00,46.6,17.5,29.92,NNE,22,6.0,10.0,31,0.00,CLR,CLR,0.00,WeatherDisplay:10.34,2013-03-27 18:34:00,
2013-03-27 14:39:00,46.4,17.4,29.92,NE,38,9.0,12.0,31,0.00,CLR,CLR,0.00,WeatherDisplay:10.34,2013-03-27 18:39:00,
2013-03-27 14:44:00,46.6,17.5,29.92,NNW,339,7.0,12.0,31,0.00,CLR,CLR,0.00,WeatherDisplay:10.34,2013-03-27 18:44:00,
2013-03-27 14:49:00,46.4,17.4,29.92,NNE,29,5.0,7.0,31,0.00,CLR,CLR,0.00,WeatherDisplay:10.34,2013-03-27 18:49:00,
2013-03-27 14:54:00,46.2,17.2,29.92,ENE,78,9.0,13.0,31,0.00,CLR,CLR,0.00,WeatherDisplay:10.34,2013-03-27 18:54:00,
2013-03-27 14:59:00,45.9,16.9,29.92,NNE,23,6.0,12.0,31,0.00,CLR,CLR,0.00,WeatherDisplay:10.34,2013-03-27 18:59:00,
2013-03-27 15:04:00,45.9,17.6,29.92,NNE,19,5.0,9.0,32,0.00,BKN,BKN,0.00,WeatherDisplay:10.34,2013-03-27 19:04:00,
2013-03-27 15:09:00,46.0,17.8,29.92,ENE,65,0.0,6.0,32,0.00,BKN,BKN,0.00,WeatherDisplay:10.34,2013-03-27 19:09:00,
2013-03-27 15:14:00,46.0,17.0,29.92,NNE,13,3.0,8.0,31,0.00,BKN,BKN,0.00,WeatherDisplay:10.34,2013-03-27 19:14:00,
2013-03-27 15:19:00,45.9,16.9,29.92,North,351,11.0,13.0,31,0.00,BKN,BKN,0.00,WeatherDisplay:10.34,2013-03-27 19:19:00,
2013-03-27 15:24:00,45.9,16.9,29.92,East,80,4.0,9.0,31,0.00,BKN,BKN,0.00,WeatherDisplay:10.34,2013-03-27 19:24:00,
2013-03-27 15:29:00,45.9,17.6,29.92,East,82,4.0,6.0,32,0.00,BKN,BKN,0.00,WeatherDisplay:10.34,2013-03-27 19:29:00,
2013-03-27 15:34:00,45.7,16.7,29.92,North,7,4.0,14.0,31,0.00,BKN,BKN,0.00,WeatherDisplay:10.34,2013-03-27 19:34:00,
2013-03-27 15:39:00,45.5,16.6,29.92,North,0,6.0,10.0,31,0.00,BKN,BKN,0.00,WeatherDisplay:10.34,2013-03-27 19:39:00,
2013-03-27 15:44:00,45.5,17.3,29.92,ENE,57,10.0,14.0,32,0.00,BKN,BKN,0.00,WeatherDisplay:10.34,2013-03-27 19:44:00,
2013-03-27 15:49:00,45.1,17.7,29.92,NNE,32,3.0,17.0,33,0.00,BKN,BKN,0.00,WeatherDisplay:10.34,2013-03-27 19:49:00,
2013-03-27 15:54:00,45.1,17.7,29.92,NNW,335,4.0,6.0,33,0.00,BKN,BKN,0.00,WeatherDisplay:10.34,2013-03-27 19:54:00,
2013-03-27 15:59:00,45.0,17.5,29.92,North,9,5.0,7.0,33,0.00,BKN,BKN,0.00,WeatherDisplay:10.34,2013-03-27 19:59:00,
2013-03-27 16:04:00,45.0,18.2,29.92,North,3,3.0,6.0,34,0.00,FEW,FEW,0.00,WeatherDisplay:10.34,2013-03-27 20:04:00,
2013-03-27 16:09:00,44.6,17.9,29.92,ENE,69,13.0,20.0,34,0.00,FEW,FEW,0.00,WeatherDisplay:10.34,2013-03-27 20:09:00,
2013-03-27 16:14:00,44.6,17.9,29.92,NW,311,4.0,10.0,34,0.00,FEW,FEW,0.00,WeatherDisplay:10.34,2013-03-27 20:14:00,
2013-03-27 16:19:00,44.2,18.3,29.92,North,0,11.0,22.0,35,0.00,FEW,FEW,0.00,WeatherDisplay:10.34,2013-03-27 20:19:00,
2013-03-27 16:24:00,43.9,17.3,29.92,ENE,78,6.0,20.0,34,0.00,FEW,FEW,0.00,WeatherDisplay:10.34,2013-03-27 20:24:00,
2013-03-27 16:29:00,43.5,18.3,29.92,ENE,59,7.0,20.0,36,0.00,FEW,FEW,0.00,WeatherDisplay:10.34,2013-03-27 20:29:00,
2013-03-27 16:34:00,43.3,18.1,29.95,NNE,12,10.0,14.0,36,0.00,FEW,FEW,0.00,WeatherDisplay:10.34,2013-03-27 20:34:00,
2013-03-27 16:39:00,43.2,19.2,29.95,North,351,4.0,9.0,38,0.00,FEW,FEW,0.00,WeatherDisplay:10.34,2013-03-27 20:39:00,
2013-03-27 16:44:00,42.8,18.9,29.95,North,1,6.0,10.0,38,0.00,FEW,FEW,0.00,WeatherDisplay:10.34,2013-03-27 20:44:00,
2013-03-27 16:50:00,42.6,18.8,29.95,NNE,15,0.0,0.0,38,0.00,FEW,FEW,0.00,WeatherDisplay:10.34,2013-03-27 20:50:00,
2013-03-27 16:55:00,42.4,18.6,29.95,NNE,28,8.0,13.0,38,0.00,FEW,FEW,0.00,WeatherDisplay:10.34,2013-03-27 20:55:00,
2013-03-27 17:00:00,42.3,19.0,29.96,NNE,19,14.0,20.0,39,0.00,FEW,FEW,0.00,WeatherDisplay:10.34,2013-03-27 21:00:00,
2013-03-27 17:05:00,42.1,18.9,29.96,NNE,22,4.0,6.0,39,0.00,BKN,BKN,0.00,WeatherDisplay:10.34,2013-03-27 21:05:00,
2013-03-27 17:10:00,42.1,18.9,29.96,NNE,12,0.0,0.0,39,0.00,BKN,BKN,0.00,WeatherDisplay:10.34,2013-03-27 21:10:00,
2013-03-27 17:15:00,42.1,19.5,29.96,North,351,8.0,12.0,40,0.00,BKN,BKN,0.00,WeatherDisplay:10.34,2013-03-27 21:15:00,
2013-03-27 17:20:00,42.1,19.5,29.96,North,351,0.0,6.0,40,0.00,BKN,BKN,0.00,WeatherDisplay:10.34,2013-03-27 21:20:00,
2013-03-27 17:25:00,42.1,19.5,29.96,North,351,0.0,0.0,40,0.00,BKN,BKN,0.00,WeatherDisplay:10.34,2013-03-27 21:25:00,
2013-03-27 17:30:00,41.9,19.9,29.96,NNW,330,7.0,10.0,41,0.00,BKN,BKN,0.00,WeatherDisplay:10.34,2013-03-27 21:30:00,
2013-03-27 17:35:00,41.7,19.7,29.96,NNE,13,5.0,9.0,41,0.00,BKN,BKN,0.00,WeatherDisplay:10.34,2013-03-27 21:35:00,
2013-03-27 17:40:00,41.5,19.6,29.96,North,351,0.0,2.0,41,0.00,BKN,BKN,0.00,WeatherDisplay:10.34,2013-03-27 21:40:00,
2013-03-27 17:45:00,41.4,19.4,29.99,ENE,75,7.0,9.0,41,0.00,BKN,BKN,0.00,WeatherDisplay:10.34,2013-03-27 21:45:00,
2013-03-27 17:51:00,41.4,20.0,29.99,North,5,5.0,9.0,42,0.00,BKN,BKN,0.00,WeatherDisplay:10.34,2013-03-27 21:51:00,
2013-03-27 17:56:00,41.2,19.8,29.99,North,8,0.0,7.0,42,0.00,BKN,BKN,0.00,WeatherDisplay:10.34,2013-03-27 21:56:00,
2013-03-27 18:01:00,41.2,19.8,29.99,NE,36,4.0,6.0,42,0.00,OVC,OVC,0.00,WeatherDisplay:10.34,2013-03-27 22:01:00,
2013-03-27 18:06:00,40.8,19.5,29.99,NNW,328,3.0,6.0,42,0.00,OVC,OVC,0.00,WeatherDisplay:10.34,2013-03-27 22:06:00,
2013-03-27 18:11:00,40.6,19.9,29.99,NNW,329,9.0,12.0,43,0.00,OVC,OVC,0.00,WeatherDisplay:10.34,2013-03-27 22:11:00,
2013-03-27 18:16:00,40.5,20.2,29.99,NNE,22,0.0,2.0,44,0.00,OVC,OVC,0.00,WeatherDisplay:10.34,2013-03-27 22:16:00,
2013-03-27 18:21:00,40.3,20.6,29.99,NNE,27,4.0,9.0,45,0.00,OVC,OVC,0.00,WeatherDisplay:10.34,2013-03-27 22:21:00,
2013-03-27 18:26:00,40.3,21.1,29.99,North,351,4.0,7.0,46,0.00,OVC,OVC,0.00,WeatherDisplay:10.34,2013-03-27 22:26:00,
2013-03-27 18:31:00,40.1,21.5,29.99,North,3,0.0,0.0,47,0.00,OVC,OVC,0.00,WeatherDisplay:10.34,2013-03-27 22:31:00,
2013-03-27 18:37:00,40.1,21.5,29.99,NNE,33,0.0,0.0,47,0.00,OVC,OVC,0.00,WeatherDisplay:10.34,2013-03-27 22:37:00,
2013-03-27 18:42:00,39.7,21.6,29.99,North,9,3.0,3.0,48,0.00,OVC,OVC,0.00,WeatherDisplay:10.34,2013-03-27 22:42:00,
2013-03-27 18:47:00,39.7,22.1,29.99,North,8,0.0,3.0,49,0.00,OVC,OVC,0.00,WeatherDisplay:10.34,2013-03-27 22:47:00,
2013-03-27 18:52:00,39.6,22.4,29.99,NNW,336,4.0,6.0,50,0.00,OVC,OVC,0.00,WeatherDisplay:10.34,2013-03-27 22:52:00,
2013-03-27 18:57:00,39.4,22.3,29.99,West,265,0.0,6.0,50,0.00,OVC,OVC,0.00,WeatherDisplay:10.34,2013-03-27 22:57:00,
2013-03-27 19:02:00,39.2,22.1,30.02,North,351,0.0,5.0,50,0.00,BKN,BKN,0.00,WeatherDisplay:10.34,2013-03-27 23:02:00,
2013-03-27 19:07:00,38.8,22.2,30.02,NNW,347,3.0,6.0,51,0.00,BKN,BKN,0.00,WeatherDisplay:10.34,2013-03-27 23:07:00,
2013-03-27 19:13:00,38.8,22.7,30.02,NNW,347,0.0,0.0,52,0.00,BKN,BKN,0.00,WeatherDisplay:10.34,2013-03-27 23:13:00,
2013-03-27 19:18:00,38.8,22.7,30.02,NNW,347,0.0,0.0,52,0.00,BKN,BKN,0.00,WeatherDisplay:10.34,2013-03-27 23:18:00,
2013-03-27 19:23:00,38.5,22.4,30.02,NNW,347,0.0,0.0,52,0.00,BKN,BKN,0.00,WeatherDisplay:10.34,2013-03-27 23:23:00,
2013-03-27 19:28:00,38.5,22.8,30.02,NNW,347,0.0,2.0,53,0.00,BKN,BKN,0.00,WeatherDisplay:10.34,2013-03-27 23:28:00,
2013-03-27 19:33:00,38.5,22.8,30.02,NNW,347,0.0,0.0,53,0.00,BKN,BKN,0.00,WeatherDisplay:10.34,2013-03-27 23:33:00,
2013-03-27 19:38:00,38.5,23.3,30.02,NNW,347,0.0,0.0,54,0.00,BKN,BKN,0.00,WeatherDisplay:10.34,2013-03-27 23:38:00,
2013-03-27 19:43:00,38.5,23.3,30.02,NNW,347,0.0,0.0,54,0.00,BKN,BKN,0.00,WeatherDisplay:10.34,2013-03-27 23:43:00,
2013-03-27 19:48:00,38.5,23.3,30.02,NNW,347,0.0,5.0,54,0.00,BKN,BKN,0.00,WeatherDisplay:10.34,2013-03-27 23:48:00,
2013-03-27 19:53:00,38.3,23.1,30.02,NNW,347,0.0,0.0,54,0.00,BKN,BKN,0.00,WeatherDisplay:10.34,2013-03-27 23:53:00,
2013-03-27 19:58:00,38.1,23.4,30.02,NNW,347,0.0,2.0,55,0.00,BKN,BKN,0.00,WeatherDisplay:10.34,2013-03-27 23:58:00,
2013-03-27 20:03:00,38.1,23.4,30.02,NNW,347,0.0,0.0,55,0.00,OVC,OVC,0.00,WeatherDisplay:10.34,2013-03-28 00:03:00,
2013-03-27 20:08:00,38.1,23.8,30.02,North,0,4.0,6.0,56,0.00,OVC,OVC,0.00,WeatherDisplay:10.34,2013-03-28 00:08:00,
2013-03-27 20:13:00,38.1,23.8,30.02,NNE,19,0.0,0.0,56,0.00,OVC,OVC,0.00,WeatherDisplay:10.34,2013-03-28 00:13:00,
2013-03-27 20:18:00,38.1,23.8,30.02,NNE,19,0.0,0.0,56,0.00,OVC,OVC,0.00,WeatherDisplay:10.34,2013-03-28 00:18:00,
2013-03-27 20:23:00,37.9,23.6,30.02,WNW,296,3.0,0.0,56,0.00,OVC,OVC,0.00,WeatherDisplay:10.34,2013-03-28 00:23:00,
2013-03-27 20:28:00,37.9,23.6,30.02,WNW,296,0.0,0.0,56,0.00,OVC,OVC,0.00,WeatherDisplay:10.34,2013-03-28 00:28:00,
2013-03-27 20:33:00,37.9,23.6,30.02,WNW,296,0.0,2.0,56,0.00,OVC,OVC,0.00,WeatherDisplay:10.34,2013-03-28 00:33:00,
2013-03-27 20:38:00,37.9,23.6,30.02,NNW,340,0.0,2.0,56,0.00,OVC,OVC,0.00,WeatherDisplay:10.34,2013-03-28 00:38:00,
2013-03-27 20:43:00,37.8,23.5,30.02,NW,312,0.0,3.0,56,0.00,OVC,OVC,0.00,WeatherDisplay:10.34,2013-03-28 00:43:00,
2013-03-27 20:48:00,37.8,23.9,30.02,NW,312,0.0,0.0,57,0.00,OVC,OVC,0.00,WeatherDisplay:10.34,2013-03-28 00:48:00,
2013-03-27 20:53:00,37.8,23.5,30.02,NW,312,0.0,0.0,56,0.00,OVC,OVC,0.00,WeatherDisplay:10.34,2013-03-28 00:53:00,
2013-03-27 20:58:00,37.6,23.7,30.02,NW,312,0.0,0.0,57,0.00,OVC,OVC,0.00,WeatherDisplay:10.34,2013-03-28 00:58:00,
2013-03-27 21:03:00,37.8,23.9,30.05,NW,312,0.0,0.0,57,0.00,OVC,OVC,0.00,WeatherDisplay:10.34,2013-03-28 01:03:00,
2013-03-27 21:08:00,37.8,23.9,30.05,NW,312,0.0,2.0,57,0.00,OVC,OVC,0.00,WeatherDisplay:10.34,2013-03-28 01:08:00,
2013-03-27 21:13:00,37.6,23.3,30.05,NNW,333,0.0,0.0,56,0.00,OVC,OVC,0.00,WeatherDisplay:10.34,2013-03-28 01:13:00,
2013-03-27 21:18:00,37.8,23.5,30.05,NNW,333,0.0,0.0,56,0.00,OVC,OVC,0.00,WeatherDisplay:10.34,2013-03-28 01:18:00,
2013-03-27 21:23:00,37.9,23.6,30.05,NNW,333,0.0,0.0,56,0.00,OVC,OVC,0.00,WeatherDisplay:10.34,2013-03-28 01:23:00,
2013-03-27 21:28:00,37.8,23.5,30.05,NNW,343,0.0,5.0,56,0.00,OVC,OVC,0.00,WeatherDisplay:10.34,2013-03-28 01:28:00,
2013-03-27 21:33:00,37.8,23.5,30.05,NNW,342,0.0,2.0,56,0.00,OVC,OVC,0.00,WeatherDisplay:10.34,2013-03-28 01:33:00,
2013-03-27 21:38:00,37.8,23.0,30.05,North,351,0.0,0.0,55,0.00,OVC,OVC,0.00,WeatherDisplay:10.34,2013-03-28 01:38:00,
2013-03-27 21:43:00,37.8,23.0,30.05,North,351,0.0,0.0,55,0.00,OVC,OVC,0.00,WeatherDisplay:10.34,2013-03-28 01:43:00,
2013-03-27 21:48:00,37.8,23.0,30.05,North,351,0.0,0.0,55,0.00,OVC,OVC,0.00,WeatherDisplay:10.34,2013-03-28 01:48:00,
2013-03-27 21:53:00,37.6,22.9,30.04,NNE,28,0.0,0.0,55,0.00,OVC,OVC,0.00,WeatherDisplay:10.34,2013-03-28 01:53:00,
2013-03-27 21:58:00,37.4,22.3,30.04,NE,54,4.0,6.0,54,0.00,OVC,OVC,0.00,WeatherDisplay:10.34,2013-03-28 01:58:00,
2013-03-27 22:03:00,37.4,22.3,30.04,ENE,69,0.0,3.0,54,0.00,OVC,OVC,0.00,WeatherDisplay:10.34,2013-03-28 02:03:00,
2013-03-27 22:08:00,37.2,22.1,30.04,ENE,69,3.0,3.0,54,0.00,OVC,OVC,0.00,WeatherDisplay:10.34,2013-03-28 02:08:00,
2013-03-27 22:13:00,37.0,21.9,30.04,ENE,69,0.0,0.0,54,0.00,OVC,OVC,0.00,WeatherDisplay:10.34,2013-03-28 02:13:00,
2013-03-27 22:18:00,37.0,22.4,30.04,East,83,3.0,5.0,55,0.00,OVC,OVC,0.00,WeatherDisplay:10.34,2013-03-28 02:18:00,
2013-03-27 22:23:00,36.9,22.6,30.04,ENE,64,0.0,6.0,56,0.00,OVC,OVC,0.00,WeatherDisplay:10.34,2013-03-28 02:23:00,
2013-03-27 22:28:00,36.7,23.3,30.04,East,86,5.0,8.0,58,0.00,OVC,OVC,0.00,WeatherDisplay:10.34,2013-03-28 02:28:00,
2013-03-27 22:33:00,36.7,23.3,30.04,ENE,64,3.0,6.0,58,0.00,OVC,OVC,0.00,WeatherDisplay:10.34,2013-03-28 02:33:00,
2013-03-27 22:38:00,36.5,23.9,30.04,ENE,60,3.0,3.0,60,0.00,OVC,OVC,0.00,WeatherDisplay:10.34,2013-03-28 02:38:00,
2013-03-27 22:43:00,36.5,24.3,30.04,ENE,67,0.0,3.0,61,0.00,OVC,OVC,0.00,WeatherDisplay:10.34,2013-03-28 02:43:00,
2013-03-27 22:48:00,36.3,24.5,30.04,ENE,66,0.0,3.0,62,0.00,OVC,OVC,0.00,WeatherDisplay:10.34,2013-03-28 02:48:00,
2013-03-27 22:53:00,36.3,24.9,30.04,ENE,66,3.0,3.0,63,0.00,OVC,OVC,0.00,WeatherDisplay:10.34,2013-03-28 02:53:00,
2013-03-27 22:58:00,36.1,25.1,30.04,ENE,66,0.0,3.0,64,0.00,OVC,OVC,0.00,WeatherDisplay:10.34,2013-03-28 02:58:00,
2013-03-27 23:03:00,36.0,25.3,30.04,ENE,66,3.0,3.0,65,0.00,OVC,OVC,0.00,WeatherDisplay:10.34,2013-03-28 03:03:00,
2013-03-27 23:08:00,35.8,25.2,30.04,ENE,67,0.0,2.0,65,0.00,OVC,OVC,0.00,WeatherDisplay:10.34,2013-03-28 03:08:00,
2013-03-27 23:13:00,36.0,25.7,30.04,ENE,66,0.0,0.0,66,0.00,OVC,OVC,0.00,WeatherDisplay:10.34,2013-03-28 03:13:00,
2013-03-27 23:18:00,35.8,25.9,30.04,ENE,66,0.0,0.0,67,0.00,OVC,OVC,0.00,WeatherDisplay:10.34,2013-03-28 03:18:00,
2013-03-27 23:23:00,35.8,25.9,30.04,ENE,67,0.0,0.0,67,0.00,OVC,OVC,0.00,WeatherDisplay:10.34,2013-03-28 03:23:00,
2013-03-27 23:28:00,35.8,26.6,30.04,North,351,3.0,5.0,69,0.00,OVC,OVC,0.00,WeatherDisplay:10.34,2013-03-28 03:28:00,
2013-03-27 23:33:00,35.8,26.6,30.04,NNE,19,3.0,0.0,69,0.00,OVC,OVC,0.00,WeatherDisplay:10.34,2013-03-28 03:33:00,
2013-03-27 23:38:00,35.8,26.9,30.04,NNE,19,3.0,3.0,70,0.00,OVC,OVC,0.00,WeatherDisplay:10.34,2013-03-28 03:38:00,
2013-03-27 23:43:00,35.8,26.9,30.04,North,351,0.0,0.0,70,0.00,OVC,OVC,0.00,WeatherDisplay:10.34,2013-03-28 03:43:00,
2013-03-27 23:48:00,35.8,27.3,30.04,North,351,0.0,2.0,71,0.00,OVC,OVC,0.00,WeatherDisplay:10.34,2013-03-28 03:48:00,
2013-03-27 23:53:00,35.8,27.3,30.04,North,351,0.0,0.0,71,0.00,OVC,OVC,0.00,WeatherDisplay:10.34,2013-03-28 03:53:00,
2013-03-27 23:58:00,35.6,27.1,30.04,North,351,0.0,0.0,71,0.00,OVC,OVC,0.00,WeatherDisplay:10.34,2013-03-28 03:58:00,